sensor_id;sensor_type;location;lat;lon;timestamp;P1;durP1;ratioP1;P2;durP2;ratioP2
71869;SDS011;59739;47.696;11.746;2023-05-07T00:00:44;6.88;;;3.88;;
71869;SDS011;59739;47.696;11.746;2023-05-07T00:03:10;5.28;;;3.40;;
71869;SDS011;59739;47.696;11.746;2023-05-07T00:05:36;3.53;;;3.22;;
71869;SDS011;59739;47.696;11.746;2023-05-07T00:08:03;4.28;;;3.50;;
71869;SDS011;59739;47.696;11.746;2023-05-07T00:10:29;4.15;;;3.67;;
71869;SDS011;59739;47.696;11.746;2023-05-07T00:12:55;5.80;;;3.60;;
71869;SDS011;59739;47.696;11.746;2023-05-07T00:15:21;3.60;;;3.30;;
71869;SDS011;59739;47.696;11.746;2023-05-07T00:17:47;5.72;;;3.38;;
71869;SDS011;59739;47.696;11.746;2023-05-07T00:20:13;4.60;;;4.00;;
71869;SDS011;59739;47.696;11.746;2023-05-07T00:22:39;3.75;;;3.38;;
71869;SDS011;59739;47.696;11.746;2023-05-07T00:25:05;3.80;;;3.40;;
71869;SDS011;59739;47.696;11.746;2023-05-07T00:27:32;4.30;;;3.20;;
71869;SDS011;59739;47.696;11.746;2023-05-07T00:29:58;3.50;;;3.20;;
71869;SDS011;59739;47.696;11.746;2023-05-07T00:32:24;4.07;;;3.67;;
71869;SDS011;59739;47.696;11.746;2023-05-07T00:34:49;4.05;;;3.35;;
71869;SDS011;59739;47.696;11.746;2023-05-07T00:37:16;4.50;;;3.50;;
71869;SDS011;59739;47.696;11.746;2023-05-07T00:39:41;4.45;;;3.80;;
71869;SDS011;59739;47.696;11.746;2023-05-07T00:42:07;4.18;;;3.55;;
71869;SDS011;59739;47.696;11.746;2023-05-07T00:44:33;4.43;;;3.45;;
71869;SDS011;59739;47.696;11.746;2023-05-07T00:47:00;6.95;;;3.63;;
71869;SDS011;59739;47.696;11.746;2023-05-07T00:49:38;3.63;;;3.10;;
71869;SDS011;59739;47.696;11.746;2023-05-07T00:52:13;4.00;;;3.30;;
71869;SDS011;59739;47.696;11.746;2023-05-07T00:54:41;3.65;;;3.35;;
71869;SDS011;59739;47.696;11.746;2023-05-07T00:57:09;5.25;;;3.58;;
71869;SDS011;59739;47.696;11.746;2023-05-07T00:59:36;4.50;;;3.53;;
71869;SDS011;59739;47.696;11.746;2023-05-07T01:02:03;6.20;;;4.03;;
71869;SDS011;59739;47.696;11.746;2023-05-07T01:04:29;3.25;;;2.95;;
71869;SDS011;59739;47.696;11.746;2023-05-07T01:06:55;5.07;;;3.10;;
71869;SDS011;59739;47.696;11.746;2023-05-07T01:09:23;4.05;;;3.55;;
71869;SDS011;59739;47.696;11.746;2023-05-07T01:11:50;3.00;;;2.80;;
71869;SDS011;59739;47.696;11.746;2023-05-07T01:14:17;3.53;;;2.95;;
71869;SDS011;59739;47.696;11.746;2023-05-07T01:16:44;4.20;;;3.25;;
71869;SDS011;59739;47.696;11.746;2023-05-07T01:19:11;3.22;;;2.90;;
71869;SDS011;59739;47.696;11.746;2023-05-07T01:21:43;3.50;;;3.08;;
71869;SDS011;59739;47.696;11.746;2023-05-07T01:24:12;4.00;;;3.25;;
71869;SDS011;59739;47.696;11.746;2023-05-07T01:26:38;5.68;;;3.33;;
71869;SDS011;59739;47.696;11.746;2023-05-07T01:29:05;3.63;;;3.33;;
71869;SDS011;59739;47.696;11.746;2023-05-07T01:31:32;3.58;;;3.28;;
71869;SDS011;59739;47.696;11.746;2023-05-07T01:33:59;3.85;;;3.30;;
71869;SDS011;59739;47.696;11.746;2023-05-07T01:36:27;5.03;;;3.42;;
71869;SDS011;59739;47.696;11.746;2023-05-07T01:38:55;4.35;;;3.10;;
71869;SDS011;59739;47.696;11.746;2023-05-07T01:41:23;3.78;;;3.20;;
71869;SDS011;59739;47.696;11.746;2023-05-07T01:43:49;3.88;;;3.20;;
71869;SDS011;59739;47.696;11.746;2023-05-07T01:46:17;3.50;;;3.20;;
71869;SDS011;59739;47.696;11.746;2023-05-07T01:48:44;3.20;;;2.83;;
71869;SDS011;59739;47.696;11.746;2023-05-07T01:51:11;5.45;;;3.33;;
71869;SDS011;59739;47.696;11.746;2023-05-07T01:53:38;5.22;;;3.20;;
71869;SDS011;59739;47.696;11.746;2023-05-07T01:56:06;3.35;;;3.00;;
71869;SDS011;59739;47.696;11.746;2023-05-07T01:58:34;3.40;;;3.10;;
71869;SDS011;59739;47.696;11.746;2023-05-07T02:01:00;3.33;;;3.03;;
71869;SDS011;59739;47.696;11.746;2023-05-07T02:03:26;4.35;;;3.35;;
71869;SDS011;59739;47.696;11.746;2023-05-07T02:07:02;3.05;;;2.80;;
71869;SDS011;59739;47.696;11.746;2023-05-07T02:09:29;5.88;;;2.95;;
71869;SDS011;59739;47.696;11.746;2023-05-07T02:11:55;4.22;;;3.15;;
71869;SDS011;59739;47.696;11.746;2023-05-07T02:14:22;3.97;;;3.20;;
71869;SDS011;59739;47.696;11.746;2023-05-07T02:16:48;3.33;;;3.00;;
71869;SDS011;59739;47.696;11.746;2023-05-07T02:19:14;3.97;;;3.40;;
71869;SDS011;59739;47.696;11.746;2023-05-07T02:21:40;4.05;;;3.13;;
71869;SDS011;59739;47.696;11.746;2023-05-07T02:24:07;3.60;;;2.83;;
71869;SDS011;59739;47.696;11.746;2023-05-07T02:26:33;4.55;;;3.03;;
71869;SDS011;59739;47.696;11.746;2023-05-07T02:28:59;3.13;;;2.70;;
71869;SDS011;59739;47.696;11.746;2023-05-07T02:31:25;5.75;;;2.90;;
71869;SDS011;59739;47.696;11.746;2023-05-07T02:33:51;3.53;;;3.22;;
71869;SDS011;59739;47.696;11.746;2023-05-07T02:36:17;5.78;;;3.20;;
71869;SDS011;59739;47.696;11.746;2023-05-07T02:38:55;5.82;;;3.20;;
71869;SDS011;59739;47.696;11.746;2023-05-07T02:41:21;4.60;;;3.10;;
71869;SDS011;59739;47.696;11.746;2023-05-07T02:43:47;4.80;;;3.20;;
71869;SDS011;59739;47.696;11.746;2023-05-07T02:46:13;3.58;;;2.90;;
71869;SDS011;59739;47.696;11.746;2023-05-07T02:48:44;4.78;;;3.38;;
71869;SDS011;59739;47.696;11.746;2023-05-07T02:51:10;4.00;;;3.30;;
71869;SDS011;59739;47.696;11.746;2023-05-07T02:53:38;3.78;;;3.20;;
71869;SDS011;59739;47.696;11.746;2023-05-07T02:56:04;4.78;;;3.03;;
71869;SDS011;59739;47.696;11.746;2023-05-07T02:58:31;3.38;;;3.05;;
71869;SDS011;59739;47.696;11.746;2023-05-07T03:00:58;5.88;;;3.00;;
71869;SDS011;59739;47.696;11.746;2023-05-07T03:03:30;5.95;;;3.13;;
71869;SDS011;59739;47.696;11.746;2023-05-07T03:05:56;3.50;;;3.13;;
71869;SDS011;59739;47.696;11.746;2023-05-07T03:08:22;3.00;;;2.78;;
71869;SDS011;59739;47.696;11.746;2023-05-07T03:10:49;3.42;;;2.92;;
71869;SDS011;59739;47.696;11.746;2023-05-07T03:13:15;3.38;;;3.00;;
71869;SDS011;59739;47.696;11.746;2023-05-07T03:15:41;3.60;;;3.17;;
71869;SDS011;59739;47.696;11.746;2023-05-07T03:18:07;3.35;;;3.05;;
71869;SDS011;59739;47.696;11.746;2023-05-07T03:20:36;3.67;;;3.38;;
71869;SDS011;59739;47.696;11.746;2023-05-07T03:23:03;4.47;;;2.92;;
71869;SDS011;59739;47.696;11.746;2023-05-07T03:25:29;4.25;;;2.85;;
71869;SDS011;59739;47.696;11.746;2023-05-07T03:27:55;3.75;;;2.97;;
71869;SDS011;59739;47.696;11.746;2023-05-07T03:30:25;4.57;;;3.00;;
71869;SDS011;59739;47.696;11.746;2023-05-07T03:32:51;3.53;;;2.90;;
71869;SDS011;59739;47.696;11.746;2023-05-07T03:35:18;3.67;;;2.97;;
71869;SDS011;59739;47.696;11.746;2023-05-07T03:37:44;4.95;;;3.50;;
71869;SDS011;59739;47.696;11.746;2023-05-07T03:40:11;4.05;;;2.97;;
71869;SDS011;59739;47.696;11.746;2023-05-07T03:42:45;3.67;;;3.05;;
71869;SDS011;59739;47.696;11.746;2023-05-07T03:45:12;2.97;;;2.67;;
71869;SDS011;59739;47.696;11.746;2023-05-07T03:47:43;3.60;;;3.13;;
71869;SDS011;59739;47.696;11.746;2023-05-07T03:50:11;4.13;;;2.65;;
71869;SDS011;59739;47.696;11.746;2023-05-07T03:52:37;3.05;;;2.80;;
71869;SDS011;59739;47.696;11.746;2023-05-07T03:55:06;3.78;;;2.95;;
71869;SDS011;59739;47.696;11.746;2023-05-07T03:57:34;3.58;;;2.95;;
71869;SDS011;59739;47.696;11.746;2023-05-07T04:00:00;4.82;;;3.25;;
71869;SDS011;59739;47.696;11.746;2023-05-07T04:02:30;4.38;;;3.40;;
71869;SDS011;59739;47.696;11.746;2023-05-07T04:04:57;4.40;;;3.15;;
71869;SDS011;59739;47.696;11.746;2023-05-07T04:07:23;6.57;;;3.28;;
71869;SDS011;59739;47.696;11.746;2023-05-07T04:09:50;3.10;;;2.80;;
71869;SDS011;59739;47.696;11.746;2023-05-07T04:12:16;6.10;;;3.05;;
71869;SDS011;59739;47.696;11.746;2023-05-07T04:14:42;5.10;;;3.28;;
71869;SDS011;59739;47.696;11.746;2023-05-07T04:17:08;3.40;;;3.05;;
71869;SDS011;59739;47.696;11.746;2023-05-07T04:19:37;3.70;;;3.40;;
71869;SDS011;59739;47.696;11.746;2023-05-07T04:22:03;3.08;;;2.78;;
71869;SDS011;59739;47.696;11.746;2023-05-07T04:24:31;4.20;;;2.85;;
71869;SDS011;59739;47.696;11.746;2023-05-07T04:29:27;4.15;;;3.20;;
71869;SDS011;59739;47.696;11.746;2023-05-07T04:31:53;3.30;;;2.85;;
71869;SDS011;59739;47.696;11.746;2023-05-07T04:34:21;4.22;;;3.17;;
71869;SDS011;59739;47.696;11.746;2023-05-07T04:36:48;3.35;;;3.05;;
71869;SDS011;59739;47.696;11.746;2023-05-07T04:39:14;4.28;;;3.95;;
71869;SDS011;59739;47.696;11.746;2023-05-07T04:41:43;3.20;;;2.90;;
71869;SDS011;59739;47.696;11.746;2023-05-07T04:44:09;4.05;;;3.08;;
71869;SDS011;59739;47.696;11.746;2023-05-07T04:46:36;4.45;;;3.17;;
71869;SDS011;59739;47.696;11.746;2023-05-07T04:49:02;3.17;;;2.95;;
71869;SDS011;59739;47.696;11.746;2023-05-07T04:51:28;5.43;;;3.25;;
71869;SDS011;59739;47.696;11.746;2023-05-07T04:53:54;4.70;;;3.55;;
71869;SDS011;59739;47.696;11.746;2023-05-07T04:56:21;3.72;;;3.25;;
71869;SDS011;59739;47.696;11.746;2023-05-07T04:58:47;4.50;;;3.10;;
71869;SDS011;59739;47.696;11.746;2023-05-07T05:01:16;4.47;;;3.08;;
71869;SDS011;59739;47.696;11.746;2023-05-07T05:03:42;3.15;;;2.85;;
71869;SDS011;59739;47.696;11.746;2023-05-07T05:06:09;4.35;;;3.17;;
71869;SDS011;59739;47.696;11.746;2023-05-07T05:08:36;4.78;;;3.13;;
71869;SDS011;59739;47.696;11.746;2023-05-07T05:11:03;3.92;;;3.53;;
71869;SDS011;59739;47.696;11.746;2023-05-07T05:13:31;3.90;;;3.13;;
71869;SDS011;59739;47.696;11.746;2023-05-07T05:15:59;5.55;;;3.00;;
71869;SDS011;59739;47.696;11.746;2023-05-07T05:18:27;3.92;;;2.90;;
71869;SDS011;59739;47.696;11.746;2023-05-07T05:20:54;3.30;;;2.90;;
71869;SDS011;59739;47.696;11.746;2023-05-07T05:23:20;5.50;;;3.13;;
71869;SDS011;59739;47.696;11.746;2023-05-07T05:25:46;4.45;;;2.90;;
71869;SDS011;59739;47.696;11.746;2023-05-07T05:28:13;2.88;;;2.55;;
71869;SDS011;59739;47.696;11.746;2023-05-07T05:30:39;3.28;;;2.80;;
71869;SDS011;59739;47.696;11.746;2023-05-07T05:33:06;3.80;;;2.83;;
71869;SDS011;59739;47.696;11.746;2023-05-07T05:35:32;3.00;;;2.40;;
71869;SDS011;59739;47.696;11.746;2023-05-07T05:38:03;4.43;;;2.92;;
71869;SDS011;59739;47.696;11.746;2023-05-07T05:40:29;3.45;;;2.60;;
71869;SDS011;59739;47.696;11.746;2023-05-07T05:42:55;4.40;;;2.80;;
71869;SDS011;59739;47.696;11.746;2023-05-07T05:45:22;3.10;;;2.80;;
71869;SDS011;59739;47.696;11.746;2023-05-07T05:47:49;2.97;;;2.63;;
71869;SDS011;59739;47.696;11.746;2023-05-07T05:50:15;2.70;;;2.50;;
71869;SDS011;59739;47.696;11.746;2023-05-07T05:52:41;3.13;;;2.35;;
71869;SDS011;59739;47.696;11.746;2023-05-07T05:55:08;2.60;;;2.40;;
71869;SDS011;59739;47.696;11.746;2023-05-07T05:57:36;4.32;;;2.47;;
71869;SDS011;59739;47.696;11.746;2023-05-07T06:00:02;5.28;;;2.30;;
71869;SDS011;59739;47.696;11.746;2023-05-07T06:02:32;4.35;;;2.67;;
71869;SDS011;59739;47.696;11.746;2023-05-07T06:04:58;3.85;;;2.85;;
71869;SDS011;59739;47.696;11.746;2023-05-07T06:07:24;4.03;;;2.30;;
71869;SDS011;59739;47.696;11.746;2023-05-07T06:09:50;2.65;;;2.42;;
71869;SDS011;59739;47.696;11.746;2023-05-07T06:12:16;5.10;;;2.72;;
71869;SDS011;59739;47.696;11.746;2023-05-07T06:14:43;2.75;;;2.40;;
71869;SDS011;59739;47.696;11.746;2023-05-07T06:17:10;3.05;;;2.33;;
71869;SDS011;59739;47.696;11.746;2023-05-07T06:19:36;4.57;;;2.40;;
71869;SDS011;59739;47.696;11.746;2023-05-07T06:22:03;2.90;;;2.35;;
71869;SDS011;59739;47.696;11.746;2023-05-07T06:24:30;2.60;;;2.25;;
71869;SDS011;59739;47.696;11.746;2023-05-07T06:26:56;4.10;;;2.30;;
71869;SDS011;59739;47.696;11.746;2023-05-07T06:29:25;2.67;;;2.47;;
71869;SDS011;59739;47.696;11.746;2023-05-07T06:31:54;3.10;;;2.40;;
71869;SDS011;59739;47.696;11.746;2023-05-07T06:34:22;3.88;;;2.35;;
71869;SDS011;59739;47.696;11.746;2023-05-07T06:36:48;2.13;;;1.65;;
71869;SDS011;59739;47.696;11.746;2023-05-07T06:39:27;2.95;;;2.50;;
71869;SDS011;59739;47.696;11.746;2023-05-07T06:41:53;2.63;;;2.05;;
71869;SDS011;59739;47.696;11.746;2023-05-07T06:44:26;2.22;;;1.98;;
71869;SDS011;59739;47.696;11.746;2023-05-07T06:47:04;3.28;;;1.98;;
71869;SDS011;59739;47.696;11.746;2023-05-07T06:49:30;2.85;;;2.30;;
71869;SDS011;59739;47.696;11.746;2023-05-07T06:51:57;2.25;;;1.95;;
71869;SDS011;59739;47.696;11.746;2023-05-07T06:54:23;3.30;;;2.30;;
71869;SDS011;59739;47.696;11.746;2023-05-07T06:56:50;2.17;;;1.73;;
71869;SDS011;59739;47.696;11.746;2023-05-07T06:59:17;3.15;;;2.03;;
71869;SDS011;59739;47.696;11.746;2023-05-07T07:01:44;2.72;;;1.85;;
71869;SDS011;59739;47.696;11.746;2023-05-07T07:04:11;2.33;;;2.03;;
71869;SDS011;59739;47.696;11.746;2023-05-07T07:06:39;3.03;;;1.92;;
71869;SDS011;59739;47.696;11.746;2023-05-07T07:09:09;3.00;;;1.77;;
71869;SDS011;59739;47.696;11.746;2023-05-07T07:11:35;2.42;;;1.92;;
71869;SDS011;59739;47.696;11.746;2023-05-07T07:14:01;2.22;;;2.03;;
71869;SDS011;59739;47.696;11.746;2023-05-07T07:16:30;2.17;;;2.05;;
71869;SDS011;59739;47.696;11.746;2023-05-07T07:18:56;3.13;;;2.08;;
71869;SDS011;59739;47.696;11.746;2023-05-07T07:21:22;6.40;;;2.40;;
71869;SDS011;59739;47.696;11.746;2023-05-07T07:23:48;1.88;;;1.70;;
71869;SDS011;59739;47.696;11.746;2023-05-07T07:26:19;2.33;;;1.98;;
71869;SDS011;59739;47.696;11.746;2023-05-07T07:28:46;2.78;;;1.98;;
71869;SDS011;59739;47.696;11.746;2023-05-07T07:31:16;2.95;;;2.00;;
71869;SDS011;59739;47.696;11.746;2023-05-07T07:33:43;2.35;;;2.03;;
71869;SDS011;59739;47.696;11.746;2023-05-07T07:36:12;4.13;;;2.25;;
71869;SDS011;59739;47.696;11.746;2023-05-07T07:38:38;2.75;;;2.20;;
71869;SDS011;59739;47.696;11.746;2023-05-07T07:41:05;2.60;;;2.10;;
71869;SDS011;59739;47.696;11.746;2023-05-07T07:43:34;3.75;;;2.40;;
71869;SDS011;59739;47.696;11.746;2023-05-07T07:46:01;2.50;;;2.30;;
71869;SDS011;59739;47.696;11.746;2023-05-07T07:48:27;3.53;;;2.50;;
71869;SDS011;59739;47.696;11.746;2023-05-07T07:50:54;3.30;;;2.13;;
71869;SDS011;59739;47.696;11.746;2023-05-07T07:53:20;2.47;;;2.00;;
71869;SDS011;59739;47.696;11.746;2023-05-07T07:55:46;3.50;;;2.13;;
71869;SDS011;59739;47.696;11.746;2023-05-07T07:58:15;2.60;;;2.20;;
71869;SDS011;59739;47.696;11.746;2023-05-07T08:00:41;2.45;;;2.25;;
71869;SDS011;59739;47.696;11.746;2023-05-07T08:03:10;2.90;;;2.60;;
71869;SDS011;59739;47.696;11.746;2023-05-07T08:05:40;2.63;;;2.17;;
71869;SDS011;59739;47.696;11.746;2023-05-07T08:08:06;2.55;;;2.28;;
71869;SDS011;59739;47.696;11.746;2023-05-07T08:10:36;3.60;;;2.20;;
71869;SDS011;59739;47.696;11.746;2023-05-07T08:13:07;3.42;;;2.30;;
71869;SDS011;59739;47.696;11.746;2023-05-07T08:15:35;2.67;;;2.15;;
71869;SDS011;59739;47.696;11.746;2023-05-07T08:18:02;2.60;;;1.70;;
71869;SDS011;59739;47.696;11.746;2023-05-07T08:20:32;3.22;;;1.98;;
71869;SDS011;59739;47.696;11.746;2023-05-07T08:23:05;2.90;;;2.33;;
71869;SDS011;59739;47.696;11.746;2023-05-07T08:25:33;4.18;;;2.35;;
71869;SDS011;59739;47.696;11.746;2023-05-07T08:28:02;3.13;;;2.20;;
71869;SDS011;59739;47.696;11.746;2023-05-07T08:30:29;2.20;;;2.00;;
71869;SDS011;59739;47.696;11.746;2023-05-07T08:32:55;6.25;;;2.38;;
71869;SDS011;59739;47.696;11.746;2023-05-07T08:35:21;2.53;;;2.33;;
71869;SDS011;59739;47.696;11.746;2023-05-07T08:37:47;2.70;;;2.50;;
71869;SDS011;59739;47.696;11.746;2023-05-07T08:40:14;3.15;;;2.20;;
71869;SDS011;59739;47.696;11.746;2023-05-07T08:42:41;4.63;;;2.40;;
71869;SDS011;59739;47.696;11.746;2023-05-07T08:45:09;3.30;;;2.20;;
71869;SDS011;59739;47.696;11.746;2023-05-07T08:47:45;2.53;;;2.33;;
71869;SDS011;59739;47.696;11.746;2023-05-07T08:50:19;3.45;;;2.05;;
71869;SDS011;59739;47.696;11.746;2023-05-07T08:52:47;3.17;;;2.28;;
71869;SDS011;59739;47.696;11.746;2023-05-07T08:55:16;2.17;;;2.00;;
71869;SDS011;59739;47.696;11.746;2023-05-07T08:57:42;2.83;;;2.00;;
71869;SDS011;59739;47.696;11.746;2023-05-07T09:00:10;3.38;;;2.05;;
71869;SDS011;59739;47.696;11.746;2023-05-07T09:02:37;2.60;;;2.20;;
71869;SDS011;59739;47.696;11.746;2023-05-07T09:05:05;2.28;;;2.03;;
71869;SDS011;59739;47.696;11.746;2023-05-07T09:07:32;3.92;;;2.20;;
71869;SDS011;59739;47.696;11.746;2023-05-07T09:10:01;2.22;;;2.03;;
71869;SDS011;59739;47.696;11.746;2023-05-07T09:12:29;2.72;;;2.05;;
71869;SDS011;59739;47.696;11.746;2023-05-07T09:14:56;2.90;;;1.88;;
71869;SDS011;59739;47.696;11.746;2023-05-07T09:17:22;2.88;;;2.00;;
71869;SDS011;59739;47.696;11.746;2023-05-07T09:19:48;3.53;;;2.38;;
71869;SDS011;59739;47.696;11.746;2023-05-07T09:22:15;2.67;;;2.13;;
71869;SDS011;59739;47.696;11.746;2023-05-07T09:24:57;2.80;;;1.90;;
71869;SDS011;59739;47.696;11.746;2023-05-07T09:27:25;2.50;;;1.80;;
71869;SDS011;59739;47.696;11.746;2023-05-07T09:29:53;2.95;;;1.92;;
71869;SDS011;59739;47.696;11.746;2023-05-07T09:32:19;3.13;;;1.92;;
71869;SDS011;59739;47.696;11.746;2023-05-07T09:34:45;2.25;;;1.90;;
71869;SDS011;59739;47.696;11.746;2023-05-07T09:37:13;2.35;;;2.00;;
71869;SDS011;59739;47.696;11.746;2023-05-07T09:39:40;2.35;;;1.80;;
71869;SDS011;59739;47.696;11.746;2023-05-07T09:42:16;2.90;;;1.83;;
71869;SDS011;59739;47.696;11.746;2023-05-07T09:44:50;2.10;;;1.83;;
71869;SDS011;59739;47.696;11.746;2023-05-07T09:47:19;2.63;;;1.92;;
71869;SDS011;59739;47.696;11.746;2023-05-07T09:49:50;3.10;;;2.20;;
71869;SDS011;59739;47.696;11.746;2023-05-07T09:52:25;2.40;;;2.20;;
71869;SDS011;59739;47.696;11.746;2023-05-07T09:54:58;2.88;;;2.15;;
71869;SDS011;59739;47.696;11.746;2023-05-07T09:57:27;2.72;;;2.25;;
71869;SDS011;59739;47.696;11.746;2023-05-07T09:59:59;2.42;;;1.88;;
71869;SDS011;59739;47.696;11.746;2023-05-07T10:02:30;4.18;;;1.83;;
71869;SDS011;59739;47.696;11.746;2023-05-07T10:04:56;2.15;;;1.95;;
71869;SDS011;59739;47.696;11.746;2023-05-07T10:07:29;3.63;;;2.00;;
71869;SDS011;59739;47.696;11.746;2023-05-07T10:10:04;2.55;;;2.10;;
71869;SDS011;59739;47.696;11.746;2023-05-07T10:12:36;2.42;;;2.20;;
71869;SDS011;59739;47.696;11.746;2023-05-07T10:15:07;2.72;;;2.38;;
71869;SDS011;59739;47.696;11.746;2023-05-07T10:17:37;2.30;;;2.10;;
71869;SDS011;59739;47.696;11.746;2023-05-07T10:20:06;2.67;;;2.00;;
71869;SDS011;59739;47.696;11.746;2023-05-07T10:22:37;2.20;;;1.90;;
71869;SDS011;59739;47.696;11.746;2023-05-07T10:25:17;2.53;;;1.90;;
71869;SDS011;59739;47.696;11.746;2023-05-07T10:27:51;4.33;;;2.20;;
71869;SDS011;59739;47.696;11.746;2023-05-07T10:30:22;1.90;;;1.80;;
71869;SDS011;59739;47.696;11.746;2023-05-07T10:33:03;2.10;;;1.90;;
71869;SDS011;59739;47.696;11.746;2023-05-07T10:35:38;3.40;;;2.60;;
71869;SDS011;59739;47.696;11.746;2023-05-07T10:38:08;4.97;;;2.50;;
71869;SDS011;59739;47.696;11.746;2023-05-07T10:40:37;2.50;;;2.30;;
71869;SDS011;59739;47.696;11.746;2023-05-07T10:43:05;2.53;;;2.20;;
71869;SDS011;59739;47.696;11.746;2023-05-07T10:45:37;3.85;;;2.50;;
71869;SDS011;59739;47.696;11.746;2023-05-07T10:48:14;2.88;;;2.10;;
71869;SDS011;59739;47.696;11.746;2023-05-07T10:50:46;2.88;;;2.67;;
71869;SDS011;59739;47.696;11.746;2023-05-07T10:55:45;3.22;;;2.15;;
71869;SDS011;59739;47.696;11.746;2023-05-07T11:00:49;2.78;;;2.35;;
71869;SDS011;59739;47.696;11.746;2023-05-07T11:03:23;2.30;;;2.10;;
71869;SDS011;59739;47.696;11.746;2023-05-07T11:06:18;4.70;;;2.58;;
71869;SDS011;59739;47.696;11.746;2023-05-07T11:09:02;3.08;;;2.30;;
71869;SDS011;59739;47.696;11.746;2023-05-07T11:11:49;2.92;;;2.28;;
71869;SDS011;59739;47.696;11.746;2023-05-07T11:17:10;4.43;;;2.60;;
71869;SDS011;59739;47.696;11.746;2023-05-07T11:19:50;2.65;;;2.05;;
71869;SDS011;59739;47.696;11.746;2023-05-07T11:22:41;2.47;;;2.00;;
71869;SDS011;59739;47.696;11.746;2023-05-07T11:25:27;2.25;;;2.05;;
71869;SDS011;59739;47.696;11.746;2023-05-07T11:28:08;1.95;;;1.80;;
71869;SDS011;59739;47.696;11.746;2023-05-07T11:30:40;3.25;;;2.05;;
71869;SDS011;59739;47.696;11.746;2023-05-07T11:33:10;3.53;;;2.20;;
71869;SDS011;59739;47.696;11.746;2023-05-07T11:35:37;2.63;;;2.05;;
71869;SDS011;59739;47.696;11.746;2023-05-07T11:38:06;2.25;;;1.85;;
71869;SDS011;59739;47.696;11.746;2023-05-07T11:40:34;3.35;;;2.15;;
71869;SDS011;59739;47.696;11.746;2023-05-07T11:43:10;2.30;;;2.10;;
71869;SDS011;59739;47.696;11.746;2023-05-07T11:45:36;2.50;;;1.80;;
71869;SDS011;59739;47.696;11.746;2023-05-07T11:48:02;3.00;;;1.75;;
71869;SDS011;59739;47.696;11.746;2023-05-07T11:50:30;2.40;;;1.92;;
71869;SDS011;59739;47.696;11.746;2023-05-07T11:52:56;2.17;;;1.95;;
71869;SDS011;59739;47.696;11.746;2023-05-07T11:55:23;3.72;;;2.40;;
71869;SDS011;59739;47.696;11.746;2023-05-07T11:57:51;3.97;;;2.10;;
71869;SDS011;59739;47.696;11.746;2023-05-07T12:00:17;2.83;;;2.45;;
71869;SDS011;59739;47.696;11.746;2023-05-07T12:02:46;1.98;;;1.88;;
71869;SDS011;59739;47.696;11.746;2023-05-07T12:05:12;2.63;;;2.17;;
71869;SDS011;59739;47.696;11.746;2023-05-07T12:07:38;3.17;;;2.00;;
71869;SDS011;59739;47.696;11.746;2023-05-07T12:10:09;4.40;;;1.90;;
71869;SDS011;59739;47.696;11.746;2023-05-07T12:12:38;3.75;;;2.03;;
71869;SDS011;59739;47.696;11.746;2023-05-07T12:15:07;2.42;;;2.00;;
71869;SDS011;59739;47.696;11.746;2023-05-07T12:17:33;2.88;;;2.20;;
71869;SDS011;59739;47.696;11.746;2023-05-07T12:20:00;5.43;;;2.20;;
71869;SDS011;59739;47.696;11.746;2023-05-07T12:22:26;2.90;;;2.17;;
71869;SDS011;59739;47.696;11.746;2023-05-07T12:24:58;1.90;;;1.80;;
71869;SDS011;59739;47.696;11.746;2023-05-07T12:27:25;2.47;;;2.00;;
71869;SDS011;59739;47.696;11.746;2023-05-07T12:29:52;3.30;;;2.05;;
71869;SDS011;59739;47.696;11.746;2023-05-07T12:32:18;2.83;;;2.20;;
71869;SDS011;59739;47.696;11.746;2023-05-07T12:34:49;2.13;;;2.00;;
71869;SDS011;59739;47.696;11.746;2023-05-07T12:37:22;2.88;;;2.47;;
71869;SDS011;59739;47.696;11.746;2023-05-07T12:40:03;3.58;;;2.10;;
71869;SDS011;59739;47.696;11.746;2023-05-07T12:42:38;2.45;;;1.65;;
71869;SDS011;59739;47.696;11.746;2023-05-07T12:45:11;2.30;;;1.83;;
71869;SDS011;59739;47.696;11.746;2023-05-07T12:47:44;1.77;;;1.67;;
71869;SDS011;59739;47.696;11.746;2023-05-07T12:50:11;2.40;;;1.77;;
71869;SDS011;59739;47.696;11.746;2023-05-07T12:52:38;2.70;;;1.90;;
71869;SDS011;59739;47.696;11.746;2023-05-07T12:55:04;2.10;;;1.77;;
71869;SDS011;59739;47.696;11.746;2023-05-07T12:57:45;2.40;;;1.77;;
71869;SDS011;59739;47.696;11.746;2023-05-07T13:00:15;2.22;;;2.03;;
71869;SDS011;59739;47.696;11.746;2023-05-07T13:02:42;2.25;;;2.05;;
71869;SDS011;59739;47.696;11.746;2023-05-07T13:05:12;1.80;;;1.70;;
71869;SDS011;59739;47.696;11.746;2023-05-07T13:07:38;2.10;;;1.90;;
71869;SDS011;59739;47.696;11.746;2023-05-07T13:10:05;1.75;;;1.65;;
71869;SDS011;59739;47.696;11.746;2023-05-07T13:12:32;1.98;;;1.88;;
71869;SDS011;59739;47.696;11.746;2023-05-07T13:14:58;5.97;;;2.00;;
71869;SDS011;59739;47.696;11.746;2023-05-07T13:17:24;4.03;;;1.90;;
71869;SDS011;59739;47.696;11.746;2023-05-07T13:19:50;3.08;;;1.70;;
71869;SDS011;59739;47.696;11.746;2023-05-07T13:22:17;2.78;;;1.77;;
71869;SDS011;59739;47.696;11.746;2023-05-07T13:24:43;3.58;;;1.80;;
71869;SDS011;59739;47.696;11.746;2023-05-07T13:27:09;2.25;;;1.50;;
71869;SDS011;59739;47.696;11.746;2023-05-07T13:29:38;1.70;;;1.23;;
71869;SDS011;59739;47.696;11.746;2023-05-07T13:32:04;1.60;;;1.50;;
71869;SDS011;59739;47.696;11.746;2023-05-07T13:34:29;2.60;;;1.45;;
71869;SDS011;59739;47.696;11.746;2023-05-07T13:36:55;3.78;;;1.48;;
71869;SDS011;59739;47.696;11.746;2023-05-07T13:39:21;2.22;;;1.60;;
71869;SDS011;59739;47.696;11.746;2023-05-07T13:41:47;2.83;;;1.90;;
71869;SDS011;59739;47.696;11.746;2023-05-07T13:44:13;6.65;;;2.13;;
71869;SDS011;59739;47.696;11.746;2023-05-07T13:46:39;2.88;;;1.80;;
71869;SDS011;59739;47.696;11.746;2023-05-07T13:49:05;4.30;;;1.90;;
71869;SDS011;59739;47.696;11.746;2023-05-07T13:51:31;6.18;;;2.67;;
71869;SDS011;59739;47.696;11.746;2023-05-07T13:53:57;2.75;;;1.90;;
71869;SDS011;59739;47.696;11.746;2023-05-07T13:56:23;6.03;;;2.15;;
71869;SDS011;59739;47.696;11.746;2023-05-07T13:58:49;3.05;;;2.13;;
71869;SDS011;59739;47.696;11.746;2023-05-07T14:01:15;4.22;;;2.80;;
71869;SDS011;59739;47.696;11.746;2023-05-07T14:03:41;4.10;;;2.00;;
71869;SDS011;59739;47.696;11.746;2023-05-07T14:06:07;3.88;;;1.70;;
71869;SDS011;59739;47.696;11.746;2023-05-07T14:08:33;3.97;;;1.70;;
71869;SDS011;59739;47.696;11.746;2023-05-07T14:10:59;4.78;;;1.67;;
71869;SDS011;59739;47.696;11.746;2023-05-07T14:13:25;1.90;;;1.40;;
71869;SDS011;59739;47.696;11.746;2023-05-07T14:15:51;1.95;;;1.83;;
71869;SDS011;59739;47.696;11.746;2023-05-07T14:18:17;2.50;;;1.50;;
71869;SDS011;59739;47.696;11.746;2023-05-07T14:20:43;2.33;;;1.73;;
71869;SDS011;59739;47.696;11.746;2023-05-07T14:23:11;2.00;;;1.30;;
71869;SDS011;59739;47.696;11.746;2023-05-07T14:25:37;3.13;;;1.65;;
71869;SDS011;59739;47.696;11.746;2023-05-07T14:28:03;2.42;;;1.60;;
71869;SDS011;59739;47.696;11.746;2023-05-07T14:30:30;3.70;;;1.77;;
71869;SDS011;59739;47.696;11.746;2023-05-07T14:32:56;2.40;;;1.95;;
71869;SDS011;59739;47.696;11.746;2023-05-07T14:35:22;3.25;;;1.80;;
71869;SDS011;59739;47.696;11.746;2023-05-07T14:37:48;2.70;;;1.67;;
71869;SDS011;59739;47.696;11.746;2023-05-07T14:40:17;2.72;;;1.63;;
71869;SDS011;59739;47.696;11.746;2023-05-07T14:42:43;3.28;;;1.83;;
71869;SDS011;59739;47.696;11.746;2023-05-07T14:45:09;2.20;;;2.00;;
71869;SDS011;59739;47.696;11.746;2023-05-07T14:47:35;2.22;;;1.55;;
71869;SDS011;59739;47.696;11.746;2023-05-07T14:50:01;2.03;;;1.65;;